createdAt,value
2018-07-02T00:00:56.913Z,9.63
2018-07-02T00:01:56.915Z,9.70
2018-07-02T00:02:56.892Z,9.65
2018-07-02T00:03:56.880Z,9.62
2018-07-02T00:04:56.897Z,9.65
2018-07-02T00:05:56.864Z,9.55
2018-07-02T00:06:56.865Z,9.55
2018-07-02T00:07:56.856Z,9.48
2018-07-02T00:08:56.829Z,9.50
2018-07-02T00:09:56.827Z,9.41
2018-07-02T00:10:56.805Z,9.48
2018-07-02T00:11:56.804Z,9.41
2018-07-02T00:12:56.784Z,9.44
2018-07-02T00:13:56.772Z,9.27
2018-07-02T00:14:56.758Z,9.30
2018-07-02T00:15:56.755Z,9.27
2018-07-02T00:16:56.859Z,9.31
2018-07-02T00:17:56.749Z,9.31
2018-07-02T00:18:56.715Z,9.26
2018-07-02T00:19:56.711Z,9.22
2018-07-02T00:20:56.713Z,9.19
2018-07-02T00:21:56.753Z,9.23
2018-07-02T00:22:56.668Z,9.17
2018-07-02T00:23:56.662Z,9.19
2018-07-02T00:24:56.648Z,9.13
2018-07-02T00:25:56.635Z,9.17
2018-07-02T00:26:56.632Z,9.08
2018-07-02T00:27:56.611Z,9.15
2018-07-02T00:28:56.600Z,9.08
2018-07-02T00:29:56.591Z,9.06
2018-07-02T00:30:56.579Z,9.10
2018-07-02T00:31:56.578Z,9.04
2018-07-02T00:32:56.559Z,8.96
2018-07-02T00:33:56.545Z,9.06
2018-07-02T00:34:56.550Z,9.04
2018-07-02T00:35:56.521Z,8.98
2018-07-02T00:36:56.522Z,8.98
2018-07-02T00:37:56.499Z,9.03
2018-07-02T00:38:56.489Z,8.98
2018-07-02T00:40:03.282Z,8.91
2018-07-02T00:40:56.465Z,8.94
2018-07-02T00:41:56.465Z,8.89
2018-07-02T00:42:56.442Z,8.94
2018-07-02T00:43:56.433Z,8.89
2018-07-02T00:44:56.428Z,8.82
2018-07-02T00:45:56.410Z,8.80
2018-07-02T00:46:56.411Z,8.85
2018-07-02T00:47:56.387Z,8.76
2018-07-02T00:48:56.376Z,8.80
2018-07-02T00:49:56.363Z,8.76
2018-07-02T00:50:56.352Z,8.76
2018-07-02T00:51:56.357Z,8.79
2018-07-02T00:52:56.408Z,8.68
2018-07-02T00:53:56.321Z,8.78
2018-07-02T00:54:56.307Z,8.76
2018-07-02T00:55:56.296Z,8.61
2018-07-02T00:56:56.297Z,8.63
2018-07-02T00:57:56.275Z,8.61
2018-07-02T00:58:56.266Z,8.52
2018-07-02T00:59:56.251Z,8.55
2018-07-02T01:00:56.242Z,8.52
2018-07-02T01:01:56.240Z,8.46
2018-07-02T01:02:56.230Z,8.46
2018-07-02T01:03:56.207Z,8.46
2018-07-02T01:04:56.195Z,8.37
2018-07-02T01:05:56.184Z,8.32
2018-07-02T01:06:56.184Z,8.34
2018-07-02T01:07:56.166Z,8.34
2018-07-02T01:08:56.150Z,8.31
2018-07-02T01:09:56.142Z,8.27
2018-07-02T01:10:56.131Z,8.29
2018-07-02T01:11:56.135Z,8.28
2018-07-02T01:12:56.106Z,8.25
2018-07-02T01:13:56.094Z,8.24
2018-07-02T01:14:56.114Z,8.20
2018-07-02T01:15:56.072Z,8.22
2018-07-02T01:16:56.075Z,8.17
2018-07-02T01:17:56.074Z,8.25
2018-07-02T01:18:56.039Z,8.17
2018-07-02T01:19:56.029Z,8.17
2018-07-02T01:20:56.195Z,8.12
2018-07-02T01:21:56.017Z,8.13
2018-07-02T01:22:55.994Z,8.12
2018-07-02T01:23:55.982Z,8.07
2018-07-02T01:24:55.970Z,8.12
2018-07-02T01:25:55.961Z,8.13
2018-07-02T01:26:55.971Z,8.06
2018-07-02T01:27:55.937Z,8.09
2018-07-02T01:28:55.929Z,8.07
2018-07-02T01:29:55.915Z,8.00
2018-07-02T01:30:55.907Z,7.99
2018-07-02T01:31:55.907Z,8.09
2018-07-02T01:32:55.880Z,8.00
2018-07-02T01:33:55.871Z,7.92
2018-07-02T01:34:55.864Z,8.04
2018-07-02T01:35:55.849Z,7.91
2018-07-02T01:36:55.850Z,7.91
2018-07-02T01:37:55.835Z,7.94
2018-07-02T01:38:55.814Z,7.94
2018-07-02T01:39:55.803Z,7.91
2018-07-02T01:40:55.793Z,7.94
2018-07-02T01:41:55.790Z,7.77
2018-07-02T01:42:55.769Z,7.85
2018-07-02T01:43:55.758Z,7.81
2018-07-02T01:44:55.746Z,7.77
2018-07-02T01:45:55.736Z,7.81
2018-07-02T01:46:55.745Z,7.81
2018-07-02T01:47:55.716Z,7.66
2018-07-02T01:48:55.705Z,7.67
2018-07-02T01:49:55.692Z,7.69
2018-07-02T01:50:55.679Z,7.66
2018-07-02T01:51:55.671Z,7.76
2018-07-02T01:52:55.667Z,7.63
2018-07-02T01:53:55.648Z,7.63
2018-07-02T01:54:55.641Z,7.62
2018-07-02T01:55:55.625Z,7.69
2018-07-02T01:56:55.611Z,7.55
2018-07-02T01:57:55.611Z,7.57
2018-07-02T01:58:55.590Z,7.63
2018-07-02T01:59:55.582Z,7.57
2018-07-02T02:00:55.566Z,7.55
2018-07-02T02:01:55.555Z,7.57
2018-07-02T02:02:55.555Z,7.60
2018-07-02T02:03:55.538Z,7.51
2018-07-02T02:04:55.521Z,7.58
2018-07-02T02:05:55.512Z,7.62
2018-07-02T02:06:55.507Z,7.45
2018-07-02T02:07:55.499Z,7.44
2018-07-02T02:08:55.489Z,7.47
2018-07-02T02:09:55.467Z,7.47
2018-07-02T02:10:55.455Z,7.39
2018-07-02T02:11:55.449Z,7.41
2018-07-02T02:12:55.443Z,7.39
2018-07-02T02:13:55.420Z,7.39
2018-07-02T02:14:55.413Z,7.36
2018-07-02T02:15:55.407Z,7.37
2018-07-02T02:16:55.388Z,7.36
2018-07-02T02:17:55.385Z,7.41
2018-07-02T02:18:55.369Z,7.42
2018-07-02T02:19:55.355Z,7.34
2018-07-02T02:20:55.344Z,7.23
2018-07-02T02:21:55.330Z,7.29
2018-07-02T02:22:55.368Z,7.29
2018-07-02T02:23:55.312Z,7.27
2018-07-02T02:24:55.297Z,7.23
2018-07-02T02:25:55.285Z,7.21
2018-07-02T02:26:55.275Z,7.24
2018-07-02T02:27:55.274Z,7.15
2018-07-02T02:28:55.253Z,7.12
2018-07-02T02:29:55.243Z,7.07
2018-07-02T02:30:55.232Z,7.08
2018-07-02T02:31:55.219Z,7.09
2018-07-02T02:32:55.224Z,7.09
2018-07-02T02:33:55.196Z,7.09
2018-07-02T02:34:55.186Z,6.99
2018-07-02T02:35:55.174Z,7.00
2018-07-02T02:36:55.165Z,7.11
2018-07-02T02:37:55.217Z,7.07
2018-07-02T02:38:55.140Z,7.08
2018-07-02T02:39:55.152Z,7.08
2018-07-02T02:40:55.117Z,7.09
2018-07-02T02:41:55.107Z,7.08
2018-07-02T02:42:55.109Z,7.00
2018-07-02T02:43:55.085Z,7.00
2018-07-02T02:44:55.077Z,6.91
2018-07-02T02:45:55.106Z,6.97
2018-07-02T02:46:55.055Z,6.93
2018-07-02T02:47:55.051Z,6.94
2018-07-02T02:48:55.047Z,6.99
2018-07-02T02:49:55.017Z,6.99
2018-07-02T02:50:55.013Z,7.00
2018-07-02T02:51:54.995Z,6.99
2018-07-02T02:52:54.995Z,6.96
2018-07-02T02:53:54.972Z,6.93
2018-07-02T02:54:54.962Z,6.86
2018-07-02T02:55:54.949Z,6.83
2018-07-02T02:56:54.942Z,6.83
2018-07-02T02:57:54.937Z,6.72
2018-07-02T02:58:54.926Z,6.64
2018-07-02T02:59:54.916Z,6.68
2018-07-02T03:00:54.893Z,6.78
2018-07-02T03:01:54.890Z,6.81
2018-07-02T03:02:54.881Z,6.73
2018-07-02T03:03:54.861Z,6.73
2018-07-02T03:04:54.849Z,6.69
2018-07-02T03:05:54.838Z,6.71
2018-07-02T03:06:54.827Z,6.71
2018-07-02T03:07:54.827Z,6.72
2018-07-02T03:08:54.820Z,6.69
2018-07-02T03:09:54.794Z,6.63
2018-07-02T03:10:54.782Z,6.65
2018-07-02T03:11:54.772Z,6.71
2018-07-02T03:12:54.769Z,6.60
2018-07-02T03:13:54.747Z,6.69
2018-07-02T03:14:54.737Z,6.65
2018-07-02T03:15:54.724Z,6.65
2018-07-02T03:16:54.746Z,6.55
2018-07-02T03:17:54.748Z,6.61
2018-07-02T03:18:54.691Z,6.60
2018-07-02T03:19:54.681Z,6.58
2018-07-02T03:20:54.675Z,6.64
2018-07-02T03:21:54.659Z,6.61
2018-07-02T03:22:54.658Z,6.68
2018-07-02T03:23:54.633Z,6.61
2018-07-02T03:24:54.628Z,6.58
2018-07-02T03:25:54.621Z,6.64
2018-07-02T03:26:54.604Z,6.65
2018-07-02T03:27:54.599Z,6.60
2018-07-02T03:28:54.582Z,6.61
2018-07-02T03:29:54.583Z,6.60
2018-07-02T03:30:54.573Z,6.60
2018-07-02T03:31:54.545Z,6.51
2018-07-02T03:32:54.566Z,6.57
2018-07-02T03:33:54.526Z,6.61
2018-07-02T03:34:54.513Z,6.55
2018-07-02T03:35:54.503Z,6.53
2018-07-02T03:36:54.489Z,6.63
2018-07-02T03:37:54.494Z,6.53
2018-07-02T03:38:54.467Z,6.53
2018-07-02T03:39:54.459Z,6.55
2018-07-02T03:40:54.447Z,6.55
2018-07-02T03:41:54.432Z,6.45
2018-07-02T03:42:54.443Z,6.50
2018-07-02T03:43:54.409Z,6.60
2018-07-02T03:44:54.399Z,6.55
2018-07-02T03:45:54.428Z,6.50
2018-07-02T03:46:54.379Z,6.51
2018-07-02T03:47:54.376Z,6.54
2018-07-02T03:48:54.355Z,6.53
2018-07-02T03:49:54.345Z,6.51
2018-07-02T03:50:54.330Z,6.57
2018-07-02T03:51:54.319Z,6.53
2018-07-02T03:52:54.319Z,6.53
2018-07-02T03:53:54.301Z,6.51
2018-07-02T03:54:54.285Z,6.45
2018-07-02T03:55:54.278Z,6.48
2018-07-02T03:56:54.263Z,6.57
2018-07-02T03:57:54.251Z,6.50
2018-07-02T03:58:54.251Z,6.60
2018-07-02T03:59:54.242Z,6.53
2018-07-02T04:00:54.240Z,6.61
2018-07-02T04:01:54.211Z,6.57
2018-07-02T04:02:54.197Z,6.54
2018-07-02T04:03:54.205Z,6.55
2018-07-02T04:04:54.234Z,6.46
2018-07-02T04:05:54.162Z,6.43
2018-07-02T04:06:54.162Z,6.48
2018-07-02T04:07:54.139Z,6.42
2018-07-02T04:08:54.139Z,6.46
2018-07-02T04:09:54.116Z,6.40
2018-07-02T04:10:54.106Z,6.35
2018-07-02T04:11:54.094Z,6.36
2018-07-02T04:12:54.114Z,6.33
2018-07-02T04:13:54.085Z,6.40
2018-07-02T04:14:54.060Z,6.43
2018-07-02T04:15:54.071Z,6.40
2018-07-02T04:16:54.038Z,6.36
2018-07-02T04:17:54.027Z,6.45
2018-07-02T04:18:54.029Z,6.33
2018-07-02T04:19:54.010Z,6.32
2018-07-02T04:20:53.992Z,6.39
2018-07-02T04:21:53.985Z,6.35
2018-07-02T04:22:53.970Z,6.30
2018-07-02T04:23:53.970Z,6.30
2018-07-02T04:24:53.964Z,6.35
2018-07-02T04:25:53.969Z,6.35
2018-07-02T04:26:53.926Z,6.35
2018-07-02T04:27:53.920Z,6.40
2018-07-02T04:28:53.914Z,6.43
2018-07-02T04:29:53.891Z,6.43
2018-07-02T04:30:53.880Z,6.36
2018-07-02T04:31:53.869Z,6.38
2018-07-02T04:32:53.859Z,6.36
2018-07-02T04:33:53.861Z,6.43
2018-07-02T04:34:53.842Z,6.43
2018-07-02T04:35:53.823Z,6.40
2018-07-02T04:36:53.816Z,6.43
2018-07-02T04:37:53.804Z,6.45
2018-07-02T04:38:53.841Z,6.36
2018-07-02T04:39:53.785Z,6.51
2018-07-02T04:40:53.767Z,6.51
2018-07-02T04:41:53.756Z,6.42
2018-07-02T04:42:53.748Z,6.42
2018-07-02T04:43:53.745Z,6.42
2018-07-02T04:44:53.722Z,6.38
2018-07-02T04:45:53.712Z,6.45
2018-07-02T04:46:53.703Z,6.40
2018-07-02T04:47:53.689Z,6.57
2018-07-02T04:48:53.694Z,6.50
2018-07-02T04:49:53.694Z,6.51
2018-07-02T04:50:53.657Z,6.39
2018-07-02T04:51:53.643Z,6.43
2018-07-02T04:52:53.634Z,6.48
2018-07-02T04:53:53.632Z,6.40
2018-07-02T04:54:53.613Z,6.45
2018-07-02T04:55:53.605Z,6.36
2018-07-02T04:56:53.588Z,6.35
2018-07-02T04:57:53.575Z,6.39
2018-07-02T04:58:53.575Z,6.36
2018-07-02T04:59:53.558Z,6.50
2018-07-02T05:00:53.545Z,6.36
2018-07-02T05:01:53.541Z,6.39
2018-07-02T05:02:53.521Z,6.45
2018-07-02T05:03:53.594Z,6.46
2018-07-02T05:04:53.503Z,6.43
2018-07-02T05:05:53.484Z,6.42
2018-07-02T05:06:53.482Z,6.43
2018-07-02T05:07:53.465Z,6.39
2018-07-02T05:08:53.465Z,6.50
2018-07-02T05:09:53.469Z,6.53
2018-07-02T05:10:53.433Z,6.51
2018-07-02T05:11:53.418Z,6.45
2018-07-02T05:12:53.409Z,6.55
2018-07-02T05:13:53.407Z,6.45
2018-07-02T05:14:53.386Z,6.57
2018-07-02T05:15:53.374Z,6.57
2018-07-02T05:16:53.370Z,6.53
2018-07-02T05:17:53.352Z,6.55
2018-07-02T05:18:53.349Z,6.55
2018-07-02T05:19:53.329Z,6.55
2018-07-02T05:20:53.317Z,6.55
2018-07-02T05:21:53.314Z,6.63
2018-07-02T05:22:53.296Z,6.61
2018-07-02T05:23:53.330Z,6.61
2018-07-02T05:24:53.277Z,6.54
2018-07-02T05:25:53.259Z,6.61
2018-07-02T05:26:53.254Z,6.58
2018-07-02T05:27:53.247Z,6.60
2018-07-02T05:28:53.238Z,6.64
2018-07-02T05:29:53.217Z,6.61
2018-07-02T05:30:53.211Z,6.58
2018-07-02T05:31:53.195Z,6.58
2018-07-02T05:32:53.183Z,6.63
2018-07-02T05:33:53.180Z,6.71
2018-07-02T05:34:53.162Z,6.63
2018-07-02T05:35:53.152Z,6.64
2018-07-02T05:36:53.143Z,6.75
2018-07-02T05:37:53.152Z,6.72
2018-07-02T05:38:53.150Z,6.78
2018-07-02T05:39:53.105Z,6.71
2018-07-02T05:40:53.099Z,6.73
2018-07-02T05:41:53.083Z,6.75
2018-07-02T05:42:53.072Z,6.81
2018-07-02T05:43:53.069Z,6.78
2018-07-02T05:44:53.047Z,6.79
2018-07-02T05:45:53.037Z,6.86
2018-07-02T05:46:53.025Z,6.87
2018-07-02T05:47:53.015Z,6.97
2018-07-02T05:48:53.013Z,7.04
2018-07-02T05:49:53.017Z,7.00
2018-07-02T05:50:52.981Z,7.05
2018-07-02T05:51:52.972Z,6.97
2018-07-02T05:52:52.959Z,7.04
2018-07-02T05:53:52.957Z,7.04
2018-07-02T05:54:52.940Z,7.12
2018-07-02T05:55:52.931Z,7.23
2018-07-02T05:56:52.911Z,7.29
2018-07-02T05:57:52.903Z,7.47
2018-07-02T05:58:52.900Z,7.95
2018-07-02T05:59:52.886Z,8.57
2018-07-02T06:00:52.868Z,9.16
2018-07-02T06:01:52.857Z,9.73
2018-07-02T06:02:53.054Z,10.25
2018-07-02T06:03:52.858Z,10.80
2018-07-02T06:04:52.826Z,11.21
2018-07-02T06:05:52.814Z,11.72
2018-07-02T06:06:52.814Z,12.23
2018-07-02T06:07:52.864Z,12.61
2018-07-02T06:08:52.777Z,12.99
2018-07-02T06:09:52.778Z,13.43
2018-07-02T06:10:52.759Z,13.72
2018-07-02T06:11:52.744Z,14.02
2018-07-02T06:12:52.739Z,14.38
2018-07-02T06:13:52.725Z,14.72
2018-07-02T06:14:52.743Z,15.19
2018-07-02T06:15:52.730Z,15.44
2018-07-02T06:16:52.702Z,15.62
2018-07-02T06:17:52.679Z,16.01
2018-07-02T06:18:52.672Z,16.26
2018-07-02T06:19:52.669Z,16.55
2018-07-02T06:20:52.647Z,16.85
2018-07-02T06:21:52.637Z,17.10
2018-07-02T06:22:52.632Z,17.30
2018-07-02T06:23:52.616Z,17.57
2018-07-02T06:24:52.695Z,17.73
2018-07-02T06:25:52.596Z,18.04
2018-07-02T06:26:52.588Z,18.16
2018-07-02T06:27:52.579Z,18.49
2018-07-02T06:28:52.579Z,18.66
2018-07-02T06:29:52.564Z,18.78
2018-07-02T06:30:52.543Z,18.96
2018-07-02T06:31:52.536Z,18.99
2018-07-02T06:32:52.523Z,19.12
2018-07-02T06:33:52.518Z,19.28
2018-07-02T06:34:52.512Z,19.43
2018-07-02T06:35:52.509Z,19.57
2018-07-02T06:36:52.536Z,19.62
2018-07-02T06:37:52.473Z,19.87
2018-07-02T06:38:52.462Z,19.89
2018-07-02T06:39:52.467Z,20.01
2018-07-02T06:40:52.452Z,20.13
2018-07-02T06:41:52.436Z,20.16
2018-07-02T06:42:52.423Z,20.34
2018-07-02T06:43:52.434Z,20.33
2018-07-02T06:44:52.415Z,20.26
2018-07-02T06:45:52.401Z,20.40
2018-07-02T06:46:52.386Z,20.50
2018-07-02T06:47:52.373Z,20.51
2018-07-02T06:48:52.368Z,20.69
2018-07-02T06:49:52.365Z,20.87
2018-07-02T06:50:52.343Z,21.05
2018-07-02T06:51:52.335Z,21.26
2018-07-02T06:52:52.328Z,21.40
2018-07-02T06:53:52.317Z,21.59
2018-07-02T06:54:52.314Z,21.66
2018-07-02T06:55:52.292Z,21.71
2018-07-02T06:56:52.281Z,21.90
2018-07-02T06:57:52.284Z,22.21
2018-07-02T06:58:52.265Z,22.27
2018-07-02T06:59:52.267Z,22.26
2018-07-02T07:00:52.288Z,22.36
2018-07-02T07:01:52.234Z,22.39
2018-07-02T07:02:52.224Z,22.41
2018-07-02T07:03:52.219Z,22.59
2018-07-02T07:04:52.216Z,22.61
2018-07-02T07:05:52.198Z,22.84
2018-07-02T07:06:52.186Z,23.09
2018-07-02T07:07:52.177Z,23.19
2018-07-02T07:08:52.823Z,23.32
2018-07-02T07:09:52.172Z,23.49
2018-07-02T07:10:52.162Z,23.50
2018-07-02T07:11:52.138Z,23.68
2018-07-02T07:12:52.127Z,23.92
2018-07-02T07:13:52.118Z,23.96
2018-07-02T07:14:52.120Z,23.87
2018-07-02T07:15:52.110Z,23.78
2018-07-02T07:16:52.097Z,23.93
2018-07-02T07:17:52.079Z,23.89
2018-07-02T07:18:52.069Z,24.09
2018-07-02T07:19:52.076Z,24.15
2018-07-02T07:20:52.068Z,24.04
2018-07-02T07:21:52.045Z,23.86
2018-07-02T07:22:52.030Z,23.93
2018-07-02T07:23:52.020Z,24.08
2018-07-02T07:24:52.022Z,24.02
2018-07-02T07:25:54.830Z,24.24
2018-07-02T07:26:51.990Z,24.15
2018-07-02T07:27:51.983Z,24.18
2018-07-02T07:28:51.980Z,24.34
2018-07-02T07:29:51.991Z,24.37
2018-07-02T07:30:51.947Z,24.67
2018-07-02T07:31:51.936Z,24.87
2018-07-02T07:32:51.927Z,24.90
2018-07-02T07:33:51.923Z,25.05
2018-07-02T07:34:51.917Z,25.07
2018-07-02T07:35:51.898Z,25.08
2018-07-02T07:36:51.886Z,25.16
2018-07-02T07:37:51.877Z,25.17
2018-07-02T07:38:51.866Z,25.08
2018-07-02T07:39:51.870Z,24.99
2018-07-02T07:40:51.844Z,24.87
2018-07-02T07:41:51.836Z,24.83
2018-07-02T07:42:51.823Z,24.90
2018-07-02T07:43:51.813Z,25.08
2018-07-02T07:44:51.885Z,25.24
2018-07-02T07:45:51.791Z,25.31
2018-07-02T07:46:51.794Z,25.56
2018-07-02T07:47:51.773Z,25.74
2018-07-02T07:48:51.758Z,25.69
2018-07-02T07:49:51.759Z,25.49
2018-07-02T07:50:51.750Z,25.64
2018-07-02T07:51:51.724Z,25.54
2018-07-02T07:52:51.716Z,25.66
2018-07-02T07:53:51.703Z,25.75
2018-07-02T07:54:51.721Z,25.78
2018-07-02T07:55:51.681Z,25.83
2018-07-02T07:56:51.669Z,25.74
2018-07-02T07:57:51.658Z,25.83
2018-07-02T07:58:51.650Z,25.78
2018-07-02T07:59:51.656Z,26.06
2018-07-02T08:00:51.630Z,26.03
2018-07-02T08:01:51.618Z,26.09
2018-07-02T08:02:51.608Z,26.28
2018-07-02T08:03:51.596Z,26.24
2018-07-02T08:04:51.681Z,26.32
2018-07-02T08:05:51.581Z,26.51
2018-07-02T08:06:51.568Z,26.64
2018-07-02T08:07:51.557Z,26.66
2018-07-02T08:08:52.334Z,26.76
2018-07-02T08:09:51.533Z,26.94
2018-07-02T08:10:51.534Z,27.24
2018-07-02T08:11:51.514Z,27.40
2018-07-02T08:12:51.503Z,27.42
2018-07-02T08:13:51.491Z,27.84
2018-07-02T08:14:51.486Z,27.81
2018-07-02T08:15:51.482Z,28.01
2018-07-02T08:16:51.461Z,28.15
2018-07-02T08:17:51.453Z,28.13
2018-07-02T08:18:51.490Z,27.83
2018-07-02T08:19:51.427Z,27.96
2018-07-02T08:20:51.428Z,27.77
2018-07-02T08:21:51.406Z,27.87
2018-07-02T08:22:51.395Z,27.88
2018-07-02T08:23:51.407Z,27.86
2018-07-02T08:24:51.373Z,27.99
2018-07-02T08:25:51.376Z,28.24
2018-07-02T08:26:51.353Z,27.90
2018-07-02T08:27:51.343Z,27.72
2018-07-02T08:28:51.331Z,27.91
2018-07-02T08:29:51.319Z,27.98
2018-07-02T08:30:51.320Z,28.20
2018-07-02T08:31:51.298Z,28.03
2018-07-02T08:32:51.300Z,27.55
2018-07-02T08:33:51.277Z,27.63
2018-07-02T08:34:51.266Z,27.38
2018-07-02T08:35:51.272Z,27.40
2018-07-02T08:36:51.244Z,27.42
2018-07-02T08:37:51.235Z,27.65
2018-07-02T08:38:51.223Z,27.78
2018-07-02T08:39:51.215Z,27.91
2018-07-02T08:40:51.210Z,27.61
2018-07-02T08:41:51.193Z,27.65
2018-07-02T08:42:51.217Z,27.55
2018-07-02T08:43:51.173Z,27.77
2018-07-02T08:44:51.157Z,27.81
2018-07-02T08:45:51.165Z,28.06
2018-07-02T08:46:51.164Z,28.08
2018-07-02T08:47:51.126Z,28.39
2018-07-02T08:48:51.114Z,28.54
2018-07-02T08:49:51.108Z,28.82
2018-07-02T08:50:51.122Z,29.11
2018-07-02T08:51:51.085Z,29.48
2018-07-02T08:52:51.125Z,29.81
2018-07-02T08:53:51.064Z,29.89
2018-07-02T08:54:51.057Z,29.95
2018-07-02T08:55:51.049Z,29.55
2018-07-02T08:56:51.028Z,29.49
2018-07-02T08:57:51.016Z,29.49
2018-07-02T08:58:51.004Z,29.48
2018-07-02T08:59:50.994Z,29.33
2018-07-02T09:00:51.002Z,29.39
2018-07-02T09:01:50.973Z,29.44
2018-07-02T09:02:50.962Z,29.12
2018-07-02T09:03:50.972Z,29.41
2018-07-02T09:04:50.941Z,29.78
2018-07-02T09:05:50.941Z,29.69
2018-07-02T09:06:50.930Z,29.97
2018-07-02T09:07:50.910Z,30.48
2018-07-02T09:08:50.897Z,30.57
2018-07-02T09:09:50.920Z,30.90
2018-07-02T09:10:50.885Z,30.85
2018-07-02T09:11:50.862Z,31.20
2018-07-02T09:12:50.856Z,31.37
2018-07-02T09:13:50.840Z,31.42
2018-07-02T09:14:50.830Z,31.19
2018-07-02T09:15:50.831Z,31.34
2018-07-02T09:16:50.811Z,31.47
2018-07-02T09:17:50.800Z,31.76
2018-07-02T09:18:50.787Z,31.78
2018-07-02T09:19:50.776Z,31.62
2018-07-02T09:20:50.776Z,31.30
2018-07-02T09:21:50.755Z,31.41
2018-07-02T09:22:50.746Z,31.79
2018-07-02T09:23:50.823Z,31.65
2018-07-02T09:24:50.724Z,31.32
2018-07-02T09:25:50.724Z,31.12
2018-07-02T09:26:50.700Z,31.16
2018-07-02T09:27:50.692Z,31.50
2018-07-02T09:28:50.684Z,31.47
2018-07-02T09:29:50.672Z,31.47
2018-07-02T09:30:50.668Z,32.03
2018-07-02T09:31:50.645Z,32.31
2018-07-02T09:32:50.634Z,32.24
2018-07-02T09:33:50.623Z,32.35
2018-07-02T09:34:50.613Z,32.02
2018-07-02T09:35:50.613Z,32.46
2018-07-02T09:36:50.605Z,32.76
2018-07-02T09:37:50.580Z,32.71
2018-07-02T09:38:50.571Z,32.58
2018-07-02T09:39:50.566Z,32.65
2018-07-02T09:40:50.561Z,32.80
2018-07-02T09:41:50.539Z,32.88
2018-07-02T09:42:50.533Z,32.81
2018-07-02T09:43:50.514Z,32.93
2018-07-02T09:44:50.505Z,33.00
2018-07-02T09:45:50.502Z,33.03
2018-07-02T09:46:50.482Z,32.76
2018-07-02T09:47:50.472Z,31.97
2018-07-02T09:48:50.460Z,31.30
2018-07-02T09:49:50.452Z,30.64
2018-07-02T09:50:50.451Z,29.49
2018-07-02T09:51:50.428Z,28.32
2018-07-02T09:52:50.416Z,27.40
2018-07-02T09:53:50.407Z,26.65
2018-07-02T09:54:50.397Z,25.96
2018-07-02T09:55:50.394Z,25.34
2018-07-02T09:56:50.372Z,24.86
2018-07-02T09:57:50.363Z,24.60
2018-07-02T09:58:50.350Z,24.30
2018-07-02T09:59:50.341Z,24.00
2018-07-02T10:00:50.340Z,23.63
2018-07-02T10:01:50.318Z,23.34
2018-07-02T10:02:50.310Z,23.03
2018-07-02T10:03:50.297Z,22.89
2018-07-02T10:04:50.285Z,22.66
2018-07-02T10:05:50.286Z,22.60
2018-07-02T10:06:50.264Z,22.44
2018-07-02T10:07:50.258Z,22.38
2018-07-02T10:08:50.242Z,22.35
2018-07-02T10:09:50.230Z,22.23
2018-07-02T10:10:50.252Z,22.15
2018-07-02T10:11:50.212Z,22.11
2018-07-02T10:12:50.198Z,22.14
2018-07-02T10:13:50.188Z,22.12
2018-07-02T10:14:50.184Z,22.19
2018-07-02T10:15:50.164Z,22.17
2018-07-02T10:16:50.166Z,22.15
2018-07-02T10:17:50.144Z,22.05
2018-07-02T10:18:50.131Z,21.99
2018-07-02T10:19:50.145Z,21.94
2018-07-02T10:20:50.110Z,21.79
2018-07-02T10:21:50.150Z,21.83
2018-07-02T10:22:50.161Z,21.81
2018-07-02T10:23:50.119Z,21.83
2018-07-02T10:24:50.066Z,21.73
2018-07-02T10:25:50.122Z,21.64
2018-07-02T10:26:50.069Z,21.43
2018-07-02T10:27:50.035Z,21.42
2018-07-02T10:28:50.022Z,21.37
2018-07-02T10:29:50.017Z,21.36
2018-07-02T10:30:50.066Z,21.36
2018-07-02T10:31:50.002Z,21.38
2018-07-02T10:32:49.978Z,21.40
2018-07-02T10:33:49.969Z,21.33
2018-07-02T10:34:49.996Z,21.31
2018-07-02T10:35:49.948Z,21.33
2018-07-02T10:36:49.975Z,21.36
2018-07-02T10:37:49.924Z,21.37
2018-07-02T10:38:49.916Z,21.33
2018-07-02T10:39:49.955Z,21.33
2018-07-02T10:40:49.906Z,21.31
2018-07-02T10:41:49.894Z,21.33
2018-07-02T10:42:49.891Z,21.34
2018-07-02T10:43:49.876Z,21.27
2018-07-02T10:44:49.850Z,21.33
2018-07-02T10:45:49.860Z,21.40
2018-07-02T10:46:49.842Z,21.36
2018-07-02T10:47:49.816Z,21.42
2018-07-02T10:48:49.812Z,21.48
2018-07-02T10:49:49.791Z,21.45
2018-07-02T10:50:49.783Z,21.45
2018-07-02T10:51:49.781Z,21.38
2018-07-02T10:52:49.765Z,21.46
2018-07-02T10:53:49.750Z,21.49
2018-07-02T10:54:49.739Z,21.49
2018-07-02T10:55:49.733Z,21.56
2018-07-02T10:56:49.729Z,21.52
2018-07-02T10:57:49.714Z,21.52
2018-07-02T10:58:49.695Z,21.59
2018-07-02T10:59:49.683Z,21.55
2018-07-02T11:00:49.675Z,21.56
2018-07-02T11:01:49.675Z,21.58
2018-07-02T11:02:49.651Z,21.45
2018-07-02T11:03:49.641Z,21.48
2018-07-02T11:04:49.632Z,21.46
2018-07-02T11:05:49.618Z,21.42
2018-07-02T11:06:49.620Z,21.38
2018-07-02T11:07:49.597Z,21.51
2018-07-02T11:08:49.585Z,21.53
2018-07-02T11:09:49.596Z,21.61
2018-07-02T11:10:49.562Z,21.58
2018-07-02T11:11:49.563Z,21.55
2018-07-02T11:12:49.541Z,21.48
2018-07-02T11:13:49.534Z,21.58
2018-07-02T11:14:49.519Z,21.55
2018-07-02T11:15:49.509Z,21.58
2018-07-02T11:16:49.511Z,21.61
2018-07-02T11:17:49.489Z,21.59
2018-07-02T11:18:49.476Z,21.59
2018-07-02T11:19:49.468Z,21.64
2018-07-02T11:20:49.459Z,21.46
2018-07-02T11:21:49.456Z,21.51
2018-07-02T11:22:49.432Z,21.52
2018-07-02T11:23:49.424Z,21.51
2018-07-02T11:24:49.410Z,21.55
2018-07-02T11:25:49.401Z,21.59
2018-07-02T11:26:49.401Z,21.59
2018-07-02T11:27:49.381Z,21.61
2018-07-02T11:28:49.367Z,21.61
2018-07-02T11:29:49.356Z,21.63
2018-07-02T11:30:49.346Z,21.61
2018-07-02T11:31:49.346Z,21.68
2018-07-02T11:32:49.324Z,21.59
2018-07-02T11:33:49.314Z,21.70
2018-07-02T11:34:49.302Z,21.61
2018-07-02T11:35:49.291Z,21.67
2018-07-02T11:36:49.292Z,21.59
2018-07-02T11:37:49.278Z,21.59
2018-07-02T11:38:49.257Z,21.61
2018-07-02T11:39:49.253Z,21.58
2018-07-02T11:40:49.240Z,21.63
2018-07-02T11:41:49.236Z,21.68
2018-07-02T11:42:49.215Z,21.59
2018-07-02T11:43:49.204Z,21.66
2018-07-02T11:44:49.194Z,21.75
2018-07-02T11:45:49.184Z,21.74
2018-07-02T11:46:49.184Z,21.77
2018-07-02T11:47:49.162Z,21.79
2018-07-02T11:48:49.150Z,21.89
2018-07-02T11:49:49.139Z,21.96
2018-07-02T11:50:49.135Z,21.91
2018-07-02T11:51:49.131Z,21.94
2018-07-02T11:52:49.114Z,21.93
2018-07-02T11:53:49.105Z,21.90
2018-07-02T11:54:49.088Z,21.89
2018-07-02T11:55:49.077Z,21.83
2018-07-02T11:56:49.075Z,21.91
2018-07-02T11:57:49.052Z,21.93
2018-07-02T11:58:49.041Z,21.98
2018-07-02T11:59:49.042Z,22.02
2018-07-02T12:00:49.021Z,21.98
2018-07-02T12:01:49.075Z,22.02
2018-07-02T12:02:49.000Z,22.14
2018-07-02T12:03:48.991Z,22.14
2018-07-02T12:04:48.977Z,22.09
2018-07-02T12:05:48.966Z,22.08
2018-07-02T12:06:48.968Z,22.08
2018-07-02T12:07:48.943Z,22.02
2018-07-02T12:08:48.934Z,21.99
2018-07-02T12:09:48.977Z,22.04
2018-07-02T12:10:48.915Z,21.93
2018-07-02T12:11:48.913Z,21.91
2018-07-02T12:12:48.895Z,21.91
2018-07-02T12:13:48.903Z,21.93
2018-07-02T12:14:48.868Z,21.98
2018-07-02T12:15:48.857Z,22.05
2018-07-02T12:16:48.879Z,22.02
2018-07-02T12:17:48.840Z,22.01
2018-07-02T12:18:48.824Z,21.94
2018-07-02T12:19:48.814Z,21.91
2018-07-02T12:20:48.809Z,21.93
2018-07-02T12:21:48.794Z,21.99
2018-07-02T12:22:48.795Z,21.90
2018-07-02T12:23:48.772Z,21.91
2018-07-02T12:24:48.759Z,21.85
2018-07-02T12:25:48.767Z,21.75
2018-07-02T12:26:48.750Z,21.86
2018-07-02T12:27:48.737Z,21.89
2018-07-02T12:28:48.717Z,21.93
2018-07-02T12:29:48.705Z,21.94
2018-07-02T12:30:48.693Z,21.74
2018-07-02T12:31:48.684Z,21.75
2018-07-02T12:32:48.693Z,21.86
2018-07-02T12:33:48.662Z,21.93
2018-07-02T12:34:48.650Z,21.86
2018-07-02T12:35:48.643Z,21.81
2018-07-02T12:36:48.631Z,21.90
2018-07-02T12:37:48.644Z,21.89
2018-07-02T12:38:48.623Z,21.93
2018-07-02T12:39:48.596Z,21.90
2018-07-02T12:40:48.587Z,21.89
2018-07-02T12:41:48.589Z,21.83
2018-07-02T12:42:48.574Z,21.93
2018-07-02T12:43:48.554Z,21.85
2018-07-02T12:44:48.544Z,21.86
2018-07-02T12:45:48.532Z,21.82
2018-07-02T12:46:48.544Z,21.96
2018-07-02T12:47:48.522Z,21.98
2018-07-02T12:48:48.497Z,22.01
2018-07-02T12:49:48.486Z,22.02
2018-07-02T12:50:48.476Z,22.06
2018-07-02T12:51:48.468Z,22.19
2018-07-02T12:52:48.473Z,22.15
2018-07-02T12:53:48.447Z,22.23
2018-07-02T12:54:48.435Z,22.15
2018-07-02T12:55:48.431Z,22.21
2018-07-02T12:56:48.417Z,22.17
2018-07-02T12:57:48.409Z,22.12
2018-07-02T12:58:48.390Z,22.19
2018-07-02T12:59:48.407Z,22.12
2018-07-02T13:00:48.382Z,22.23
2018-07-02T13:01:48.356Z,22.23
2018-07-02T13:02:48.380Z,22.24
2018-07-02T13:03:48.336Z,22.20
2018-07-02T13:04:48.324Z,22.27